»·PEaware :: WAT540 PAPG-PAJN

WAT540 :: PAPG-PAJN

FLIGHT INFORMATION

Flight Status: Arrived
Operator:
Walker Air Transport
More flights by this operator :: More flights under this callsign
Pilot: Michael R. (33632)
Aircraft: PIPER PA-30 TWIN COMANCHE
(PA30)
More flights by this aircraft type
Origin: PAPG Johnson Petersburg
United States
Destination: PAJN Juneau Intl
United States
More flights between these airports :: More routes between these airports
Route:
File this flight plan on PilotEdge
Remarks:
Altitude:
(Current/Filed)
6,500ft
Speed:
(Current/Filed)
160kts
Departed: 20-Feb-21 01:39 AM
Arrived: 20-Feb-21 02:24 AM
Distance/Time
Traveled:
107nm/0:45
Distance/Time
To Go:
Arrived

Flight Plot

Page will automatically refresh every two minutes.

Flight plan parsing failed; only flown route is shown


Map Options




Map Legend


Flown Route
Filed Route
Departure Airport
Arrival Airport
Navaid (VOR, NDB)
Fix

Horizontal Profiles

Position Reports

Time Latitude Longitude Heading Altitude Ground
Speed
20-Feb-21 01:14 56.805322 -132.936140 317 76ft 0kts
20-Feb-21 01:15 56.805322 -132.936140 317 76ft 0kts
20-Feb-21 01:16 56.805322 -132.936140 317 76ft 0kts
20-Feb-21 01:17 56.805322 -132.936140 317 76ft 0kts
20-Feb-21 01:18 56.805322 -132.936140 317 76ft 0kts
20-Feb-21 01:19 56.805322 -132.936140 317 76ft 0kts
20-Feb-21 01:20 56.805322 -132.936140 317 76ft 0kts
20-Feb-21 01:21 56.805322 -132.936140 317 76ft 0kts
20-Feb-21 01:22 56.805322 -132.936140 317 76ft 0kts
20-Feb-21 01:23 56.805322 -132.936140 317 76ft 0kts
20-Feb-21 01:24 56.805322 -132.936140 317 76ft 0kts
20-Feb-21 01:25 56.805322 -132.936140 317 76ft 0kts
20-Feb-21 01:26 56.805322 -132.936140 317 76ft 0kts
20-Feb-21 01:27 56.805322 -132.936140 317 76ft 0kts
20-Feb-21 01:28 56.805322 -132.936140 317 76ft 0kts
20-Feb-21 01:29 56.805322 -132.936140 317 76ft 0kts
20-Feb-21 01:30 56.805322 -132.936140 317 76ft 0kts
20-Feb-21 01:31 56.805322 -132.936140 317 76ft 0kts
20-Feb-21 01:32 56.805322 -132.936140 317 76ft 0kts
20-Feb-21 01:33 56.805323 -132.936141 317 76ft 0kts
20-Feb-21 01:34 56.805395 -132.935363 91 77ft 7kts
20-Feb-21 01:35 56.804801 -132.933955 160 80ft 0kts
20-Feb-21 01:36 56.804761 -132.933930 161 80ft 1kts
20-Feb-21 01:37 56.804109 -132.932721 250 81ft 34kts
20-Feb-21 01:38 56.799440 -132.975915 304 774ft 105kts
20-Feb-21 01:39 56.822287 -132.959143 50 1862ft 109kts
20-Feb-21 01:40 56.847542 -132.931795 15 2980ft 109kts
20-Feb-21 01:41 56.873615 -132.944161 318 3965ft 112kts
20-Feb-21 01:42 56.901905 -132.975106 330 4777ft 122kts
20-Feb-21 01:43 56.932783 -133.007745 330 5244ft 131kts
20-Feb-21 01:44 56.964576 -133.041349 330 5736ft 132kts
20-Feb-21 01:45 56.996506 -133.075143 330 6224ft 133kts
20-Feb-21 01:46 57.029594 -133.110232 330 6506ft 144kts
20-Feb-21 01:47 57.066087 -133.149028 330 6503ft 156kts
20-Feb-21 01:48 57.104152 -133.189572 330 6502ft 159kts
20-Feb-21 01:49 57.142030 -133.230006 330 6502ft 159kts
20-Feb-21 01:50 57.180826 -133.271520 330 6502ft 159kts
20-Feb-21 01:51 57.219078 -133.312552 330 6502ft 159kts
20-Feb-21 01:52 57.257555 -133.353925 330 6502ft 159kts
20-Feb-21 01:53 57.295838 -133.395190 330 6502ft 159kts
20-Feb-21 01:54 57.334203 -133.436644 330 6502ft 159kts
20-Feb-21 01:55 57.372449 -133.478071 330 6502ft 159kts
20-Feb-21 01:56 57.410800 -133.519714 330 6502ft 159kts
20-Feb-21 01:57 57.449084 -133.561385 330 6502ft 159kts
20-Feb-21 01:58 57.487307 -133.603091 330 6502ft 159kts
20-Feb-21 01:59 57.525622 -133.645002 330 6502ft 160kts
20-Feb-21 02:00 57.563817 -133.686883 329 6502ft 160kts
20-Feb-21 02:01 57.602213 -133.729091 329 6502ft 160kts
20-Feb-21 02:02 57.640499 -133.771282 329 6502ft 160kts
20-Feb-21 02:03 57.678606 -133.813377 329 6502ft 160kts
20-Feb-21 02:04 57.717935 -133.851908 334 6501ft 160kts
20-Feb-21 02:05 57.758287 -133.887073 335 6502ft 160kts
20-Feb-21 02:06 57.798562 -133.922243 335 6502ft 160kts
20-Feb-21 02:07 57.838690 -133.957281 335 6502ft 160kts
20-Feb-21 02:08 57.879479 -133.992919 335 6344ft 168kts
20-Feb-21 02:09 57.922991 -134.030940 335 5989ft 174kts
20-Feb-21 02:10 57.967527 -134.067008 337 5658ft 175kts
20-Feb-21 02:11 58.012297 -134.102660 337 5333ft 175kts
20-Feb-21 02:12 58.057039 -134.138316 337 5012ft 174kts
20-Feb-21 02:13 58.101697 -134.173923 337 4697ft 174kts
20-Feb-21 02:14 58.146150 -134.209396 337 4387ft 174kts
20-Feb-21 02:15 58.189929 -134.248382 334 4084ft 174kts
20-Feb-21 02:16 58.229265 -134.302390 316 3788ft 175kts
20-Feb-21 02:17 58.262291 -134.360982 317 2639ft 135kts
20-Feb-21 02:18 58.287078 -134.405246 317 1771ft 107kts
20-Feb-21 02:19 58.307147 -134.444703 312 1249ft 101kts
20-Feb-21 02:20 58.327879 -134.480004 322 1213ft 95kts
20-Feb-21 02:21 58.345253 -134.513293 300 690ft 86kts
20-Feb-21 02:22 58.352009 -134.555382 285 4ft 69kts
20-Feb-21 02:23 58.354944 -134.567720 316 6ft 8kts
20-Feb-21 02:24 58.357404 -134.568363 286 9ft 0kts

Navigation Log

Ident Type
Flight plan parsing failed, navigation log unavailable